Time,TemperatureF,DewpointF,PressureIn,WindDirection,WindDirectionDegrees,WindSpeedMPH,WindSpeedGustMPH,Humidity,HourlyPrecipIn,Conditions,Clouds,dailyrainin,SolarRadiationWatts/m^2,SoftwareType,DateUTC
2013-04-09 00:02:00,42.0,40.7,30.21,NE,34,0.0,0.0,95,0.00,,---,0.00,0.00,VWS V14.01,2013-04-09 07:02:00,
2013-04-09 00:07:00,41.9,40.6,30.21,NE,34,0.0,0.0,95,0.00,,---,0.00,0.00,VWS V14.01,2013-04-09 07:07:00,
2013-04-09 00:12:00,41.8,40.5,30.21,NE,34,0.0,0.0,95,0.00,,---,0.00,0.00,VWS V14.01,2013-04-09 07:12:00,
2013-04-09 00:17:00,41.6,40.3,30.21,NE,34,0.0,0.0,95,0.00,,---,0.00,0.00,VWS V14.01,2013-04-09 07:17:00,
2013-04-09 00:22:00,41.5,40.2,30.21,NE,34,0.0,0.0,95,0.00,,---,0.00,0.00,VWS V14.01,2013-04-09 07:22:00,
2013-04-09 00:27:00,41.4,40.3,30.21,NE,34,0.0,0.0,96,0.00,,---,0.00,0.00,VWS V14.01,2013-04-09 07:27:00,
2013-04-09 00:32:00,41.3,40.2,30.21,NE,34,0.0,0.0,96,0.00,,---,0.00,0.00,VWS V14.01,2013-04-09 07:32:00,
2013-04-09 00:37:00,41.4,40.3,30.22,NE,34,0.0,0.0,96,0.00,,---,0.00,0.00,VWS V14.01,2013-04-09 07:37:00,
2013-04-09 00:42:00,41.6,40.5,30.22,NE,34,0.0,0.0,96,0.00,,---,0.00,0.00,VWS V14.01,2013-04-09 07:42:00,
2013-04-09 00:47:00,41.9,40.8,30.22,NE,34,0.0,1.0,96,0.00,,---,0.00,0.00,VWS V14.01,2013-04-09 07:47:00,
2013-04-09 00:52:00,42.1,41.0,30.22,NE,34,0.0,1.0,96,0.00,,---,0.00,0.00,VWS V14.01,2013-04-09 07:52:00,
2013-04-09 00:57:00,42.2,41.4,30.22,NE,34,0.0,1.0,97,0.00,,---,0.00,0.00,VWS V14.01,2013-04-09 07:57:00,
2013-04-09 01:02:00,42.3,41.5,30.22,NE,34,0.0,0.0,97,0.00,,---,0.00,0.00,VWS V14.01,2013-04-09 08:02:00,
2013-04-09 01:08:00,42.4,41.6,30.23,NE,34,0.0,0.0,97,0.00,,---,0.00,0.00,VWS V14.01,2013-04-09 08:08:00,
2013-04-09 01:13:00,42.4,41.3,30.23,WNW,296,0.0,3.0,96,0.00,,---,0.00,0.00,VWS V14.01,2013-04-09 08:13:00,
2013-04-09 01:18:00,42.5,41.4,30.23,South,181,0.0,3.0,96,0.00,,---,0.00,0.00,VWS V14.01,2013-04-09 08:18:00,
2013-04-09 01:23:00,42.6,41.5,30.23,West,259,0.0,4.0,96,0.00,,---,0.00,0.00,VWS V14.01,2013-04-09 08:23:00,
2013-04-09 01:28:00,42.7,41.6,30.23,WNW,289,0.0,4.0,96,0.00,,---,0.00,0.00,VWS V14.01,2013-04-09 08:28:00,
2013-04-09 01:33:00,42.7,41.6,30.23,WNW,289,0.0,2.0,96,0.00,,---,0.00,0.00,VWS V14.01,2013-04-09 08:33:00,
2013-04-09 01:38:00,42.7,41.6,30.23,West,277,0.0,2.0,96,0.00,,---,0.00,0.00,VWS V14.01,2013-04-09 08:38:00,
2013-04-09 01:43:00,42.7,41.6,30.23,SSW,203,0.0,2.0,96,0.00,,---,0.00,0.00,VWS V14.01,2013-04-09 08:43:00,
2013-04-09 01:48:00,42.7,41.6,30.24,SW,222,0.0,2.0,96,0.00,,---,0.00,0.00,VWS V14.01,2013-04-09 08:48:00,
2013-04-09 01:53:00,42.7,41.6,30.24,West,277,0.0,2.0,96,0.00,,---,0.00,0.00,VWS V14.01,2013-04-09 08:53:00,
2013-04-09 01:58:00,42.7,41.6,30.24,WNW,290,0.0,3.0,96,0.00,,---,0.00,0.00,VWS V14.01,2013-04-09 08:58:00,
2013-04-09 02:03:00,42.7,41.6,30.24,West,269,0.0,2.0,96,0.00,,---,0.00,0.00,VWS V14.01,2013-04-09 09:03:00,
2013-04-09 02:08:00,42.7,41.6,30.24,WSW,256,0.0,4.0,96,0.00,,---,0.00,0.00,VWS V14.01,2013-04-09 09:08:00,
2013-04-09 02:13:00,42.7,41.6,30.24,WSW,258,0.0,4.0,96,0.00,,---,0.00,0.00,VWS V14.01,2013-04-09 09:13:00,
2013-04-09 02:18:00,42.7,41.6,30.24,WSW,258,0.0,0.0,96,0.00,,---,0.00,0.00,VWS V14.01,2013-04-09 09:18:00,
2013-04-09 02:23:00,42.7,41.6,30.24,WSW,258,0.0,0.0,96,0.00,,---,0.00,0.00,VWS V14.01,2013-04-09 09:23:00,
2013-04-09 02:28:00,42.7,41.6,30.24,WSW,250,0.0,3.0,96,0.00,,---,0.00,0.00,VWS V14.01,2013-04-09 09:28:00,
2013-04-09 02:33:00,42.6,41.3,30.24,WSW,252,0.0,4.0,95,0.00,,---,0.00,0.00,VWS V14.01,2013-04-09 09:33:00,
2013-04-09 02:38:00,42.6,41.3,30.23,WSW,254,0.0,4.0,95,0.00,,---,0.00,0.00,VWS V14.01,2013-04-09 09:38:00,
2013-04-09 02:43:00,42.5,41.2,30.23,SW,230,0.0,2.0,95,0.00,,---,0.00,0.00,VWS V14.01,2013-04-09 09:43:00,
2013-04-09 02:48:00,42.4,41.1,30.23,SW,230,0.0,1.0,95,0.00,,---,0.00,0.00,VWS V14.01,2013-04-09 09:48:00,
2013-04-09 02:53:00,42.4,41.1,30.23,SW,230,0.0,0.0,95,0.00,,---,0.00,0.00,VWS V14.01,2013-04-09 09:53:00,
2013-04-09 02:58:00,42.3,41.0,30.23,SW,230,0.0,0.0,95,0.00,,---,0.00,0.00,VWS V14.01,2013-04-09 09:58:00,
2013-04-09 03:03:00,42.3,41.0,30.23,SW,230,0.0,0.0,95,0.00,,---,0.00,0.00,VWS V14.01,2013-04-09 10:03:00,
2013-04-09 03:08:00,42.2,40.9,30.23,SW,230,0.0,0.0,95,0.00,,---,0.00,0.00,VWS V14.01,2013-04-09 10:08:00,
2013-04-09 03:13:00,42.1,40.8,30.23,SW,230,0.0,0.0,95,0.00,,---,0.00,0.00,VWS V14.01,2013-04-09 10:13:00,
2013-04-09 03:18:00,42.0,40.7,30.23,SW,230,0.0,0.0,95,0.00,,---,0.00,0.00,VWS V14.01,2013-04-09 10:18:00,
2013-04-09 03:23:00,41.9,40.6,30.23,SW,230,0.0,0.0,95,0.00,,---,0.00,0.00,VWS V14.01,2013-04-09 10:23:00,
2013-04-09 03:28:00,41.8,40.5,30.23,SW,230,0.0,0.0,95,0.00,,---,0.00,0.00,VWS V14.01,2013-04-09 10:28:00,
2013-04-09 03:33:00,41.8,40.5,30.23,SW,230,0.0,1.0,95,0.00,,---,0.00,0.00,VWS V14.01,2013-04-09 10:33:00,
2013-04-09 03:38:00,41.9,40.6,30.23,SW,230,0.0,1.0,95,0.00,,---,0.00,0.00,VWS V14.01,2013-04-09 10:38:00,
2013-04-09 03:43:00,41.9,40.6,30.23,SW,230,0.0,0.0,95,0.00,,---,0.00,0.00,VWS V14.01,2013-04-09 10:43:00,
2013-04-09 03:49:00,42.0,40.7,30.24,SW,230,0.0,0.0,95,0.00,,---,0.00,0.00,VWS V14.01,2013-04-09 10:49:00,
2013-04-09 03:55:00,42.0,40.7,30.24,SW,230,0.0,0.0,95,0.00,,---,0.00,0.00,VWS V14.01,2013-04-09 10:55:00,
2013-04-09 04:01:00,42.0,40.7,30.24,SW,230,0.0,0.0,95,0.00,,---,0.00,0.00,VWS V14.01,2013-04-09 11:01:00,
2013-04-09 04:07:00,41.9,40.6,30.24,SW,230,0.0,0.0,95,0.00,,---,0.00,0.00,VWS V14.01,2013-04-09 11:07:00,
2013-04-09 04:12:00,41.9,40.6,30.24,SW,230,0.0,0.0,95,0.00,,---,0.00,0.00,VWS V14.01,2013-04-09 11:12:00,
2013-04-09 04:17:00,41.9,40.6,30.25,SW,230,0.0,0.0,95,0.00,,---,0.00,0.00,VWS V14.01,2013-04-09 11:17:00,
2013-04-09 04:22:00,41.9,40.6,30.25,SW,230,0.0,0.0,95,0.00,,---,0.00,0.00,VWS V14.01,2013-04-09 11:22:00,
2013-04-09 04:27:00,41.9,40.6,30.25,SW,230,0.0,0.0,95,0.00,,---,0.00,0.00,VWS V14.01,2013-04-09 11:27:00,
2013-04-09 04:32:00,41.9,40.6,30.25,SW,230,0.0,0.0,95,0.00,,---,0.00,0.00,VWS V14.01,2013-04-09 11:32:00,
2013-04-09 04:37:00,41.9,40.6,30.25,SW,230,0.0,0.0,95,0.00,,---,0.00,0.00,VWS V14.01,2013-04-09 11:37:00,
2013-04-09 04:42:00,42.0,40.9,30.26,SW,230,0.0,0.0,96,0.00,,---,0.00,0.00,VWS V14.01,2013-04-09 11:42:00,
2013-04-09 04:47:00,42.0,40.7,30.26,SW,230,0.0,0.0,95,0.00,,---,0.00,0.00,VWS V14.01,2013-04-09 11:47:00,
2013-04-09 04:52:00,42.0,40.9,30.26,SW,230,0.0,0.0,96,0.00,,---,0.00,0.00,VWS V14.01,2013-04-09 11:52:00,
2013-04-09 04:57:00,42.2,41.1,30.26,SE,136,0.0,2.0,96,0.00,,---,0.00,0.00,VWS V14.01,2013-04-09 11:57:00,
2013-04-09 05:02:00,42.3,41.2,30.26,SE,136,0.0,0.0,96,0.00,,---,0.00,0.00,VWS V14.01,2013-04-09 12:02:00,
2013-04-09 05:07:00,42.3,41.0,30.26,SE,136,0.0,0.0,95,0.00,,---,0.00,0.00,VWS V14.01,2013-04-09 12:07:00,
2013-04-09 05:12:00,42.2,40.9,30.26,SE,138,0.0,1.0,95,0.00,,---,0.00,0.00,VWS V14.01,2013-04-09 12:12:00,
2013-04-09 05:17:00,42.1,40.8,30.26,SE,138,0.0,1.0,95,0.00,,---,0.00,0.00,VWS V14.01,2013-04-09 12:17:00,
2013-04-09 05:22:00,42.0,40.7,30.26,SE,142,0.0,1.0,95,0.00,,---,0.00,0.00,VWS V14.01,2013-04-09 12:22:00,
2013-04-09 05:27:00,41.9,40.6,30.26,SE,142,0.0,1.0,95,0.00,,---,0.00,0.00,VWS V14.01,2013-04-09 12:27:00,
2013-04-09 05:32:00,41.9,40.6,30.25,SE,142,0.0,0.0,95,0.00,,---,0.00,0.00,VWS V14.01,2013-04-09 12:32:00,
2013-04-09 05:37:00,41.8,40.5,30.25,SE,146,0.0,1.0,95,0.00,,---,0.00,0.00,VWS V14.01,2013-04-09 12:37:00,
2013-04-09 05:42:00,41.8,40.5,30.25,SE,146,0.0,0.0,95,0.00,,---,0.00,0.00,VWS V14.01,2013-04-09 12:42:00,
2013-04-09 05:47:00,41.7,40.4,30.25,SE,146,0.0,0.0,95,0.00,,---,0.00,0.00,VWS V14.01,2013-04-09 12:47:00,
2013-04-09 05:52:00,41.6,40.3,30.25,SE,146,0.0,0.0,95,0.00,,---,0.00,0.00,VWS V14.01,2013-04-09 12:52:00,
2013-04-09 05:57:00,41.4,40.1,30.25,SE,146,0.0,0.0,95,0.00,,---,0.00,0.00,VWS V14.01,2013-04-09 12:57:00,
2013-04-09 06:02:00,41.3,40.0,30.25,SE,146,0.0,0.0,95,0.00,,---,0.00,0.00,VWS V14.01,2013-04-09 13:02:00,
2013-04-09 06:07:00,41.1,39.8,30.25,SE,146,0.0,0.0,95,0.00,,---,0.00,0.00,VWS V14.01,2013-04-09 13:07:00,
2013-04-09 06:12:00,41.0,39.7,30.25,SE,146,0.0,0.0,95,0.00,,---,0.00,0.00,VWS V14.01,2013-04-09 13:12:00,
2013-04-09 06:17:00,41.0,39.7,30.25,SE,146,0.0,0.0,95,0.00,,---,0.00,0.00,VWS V14.01,2013-04-09 13:17:00,
2013-04-09 06:22:00,41.0,39.7,30.25,SE,146,0.0,0.0,95,0.00,,---,0.00,0.00,VWS V14.01,2013-04-09 13:22:00,
2013-04-09 06:27:00,41.0,39.7,30.25,SE,146,0.0,0.0,95,0.00,,---,0.00,0.00,VWS V14.01,2013-04-09 13:27:00,
2013-04-09 06:33:00,41.0,40.0,30.25,SE,146,0.0,0.0,96,0.00,,---,0.00,0.00,VWS V14.01,2013-04-09 13:33:00,
2013-04-09 06:38:00,41.1,40.0,30.25,SE,146,0.0,0.0,96,0.00,,---,0.00,0.00,VWS V14.01,2013-04-09 13:38:00,
2013-04-09 06:43:00,41.1,40.0,30.26,SE,146,0.0,0.0,96,0.00,,---,0.00,0.00,VWS V14.01,2013-04-09 13:43:00,
2013-04-09 06:48:00,41.1,40.0,30.25,SE,146,0.0,0.0,96,0.00,,---,0.00,5.00,VWS V14.01,2013-04-09 13:48:00,
2013-04-09 06:53:00,41.2,40.2,30.25,SE,146,0.0,0.0,96,0.00,,---,0.00,7.00,VWS V14.01,2013-04-09 13:53:00,
2013-04-09 06:58:00,41.3,40.2,30.25,SE,146,0.0,0.0,96,0.00,,---,0.00,11.00,VWS V14.01,2013-04-09 13:58:00,
2013-04-09 07:03:00,41.3,40.2,30.25,SE,146,0.0,0.0,96,0.00,,---,0.00,16.00,VWS V14.01,2013-04-09 14:03:00,
2013-04-09 07:08:00,41.3,40.2,30.26,SE,146,0.0,0.0,96,0.00,,---,0.00,23.00,VWS V14.01,2013-04-09 14:08:00,
2013-04-09 07:13:00,41.4,40.3,30.26,SE,146,0.0,0.0,96,0.00,,---,0.00,26.00,VWS V14.01,2013-04-09 14:13:00,
2013-04-09 07:18:00,41.5,40.5,30.26,SE,146,0.0,0.0,96,0.00,,---,0.00,28.00,VWS V14.01,2013-04-09 14:18:00,
2013-04-09 07:23:00,41.7,40.7,30.26,SE,146,0.0,0.0,96,0.00,,---,0.00,32.00,VWS V14.01,2013-04-09 14:23:00,
2013-04-09 07:28:00,41.9,40.8,30.26,SE,146,0.0,0.0,96,0.00,,---,0.00,35.00,VWS V14.01,2013-04-09 14:28:00,
2013-04-09 07:33:00,42.1,41.0,30.26,SE,146,0.0,0.0,96,0.00,,---,0.00,40.00,VWS V14.01,2013-04-09 14:33:00,
2013-04-09 07:38:00,42.3,41.5,30.26,SE,146,0.0,0.0,97,0.00,,---,0.00,46.00,VWS V14.01,2013-04-09 14:38:00,
2013-04-09 07:43:00,42.4,41.3,30.26,SE,146,0.0,0.0,96,0.00,,---,0.00,53.00,VWS V14.01,2013-04-09 14:43:00,
2013-04-09 07:48:00,42.7,41.6,30.27,SE,146,0.0,0.0,96,0.00,,---,0.00,60.00,VWS V14.01,2013-04-09 14:48:00,
2013-04-09 07:53:00,42.8,41.7,30.27,SE,146,0.0,0.0,96,0.00,,---,0.00,69.00,VWS V14.01,2013-04-09 14:53:00,
2013-04-09 07:58:00,42.9,41.8,30.26,SE,146,0.0,0.0,96,0.00,,---,0.00,74.00,VWS V14.01,2013-04-09 14:58:00,
2013-04-09 08:03:00,43.1,42.0,30.26,SE,146,0.0,0.0,96,0.00,,---,0.00,81.00,VWS V14.01,2013-04-09 15:03:00,
2013-04-09 08:08:00,43.3,42.2,30.26,SE,146,0.0,0.0,96,0.00,,---,0.00,91.00,VWS V14.01,2013-04-09 15:08:00,
2013-04-09 08:13:00,43.4,42.3,30.26,SE,146,0.0,0.0,96,0.00,,---,0.00,97.00,VWS V14.01,2013-04-09 15:13:00,
2013-04-09 08:18:00,43.6,42.5,30.26,East,90,0.0,0.0,96,0.00,,---,0.00,100.00,VWS V14.01,2013-04-09 15:18:00,
2013-04-09 08:23:00,43.7,42.6,30.26,East,90,0.0,0.0,96,0.00,,---,0.00,95.00,VWS V14.01,2013-04-09 15:23:00,
2013-04-09 08:28:00,43.8,42.5,30.27,East,90,0.0,0.0,95,0.00,,---,0.00,88.00,VWS V14.01,2013-04-09 15:28:00,
2013-04-09 08:33:00,43.9,42.6,30.26,East,90,0.0,0.0,95,0.00,,---,0.00,95.00,VWS V14.01,2013-04-09 15:33:00,
2013-04-09 08:39:00,44.0,42.7,30.26,East,90,0.0,0.0,95,0.00,,---,0.00,113.00,VWS V14.01,2013-04-09 15:39:00,
2013-04-09 08:44:00,44.3,43.0,30.26,East,90,0.0,0.0,95,0.00,,---,0.00,128.00,VWS V14.01,2013-04-09 15:44:00,
2013-04-09 08:49:00,44.6,43.0,30.26,East,90,0.0,0.0,94,0.00,,---,0.00,134.00,VWS V14.01,2013-04-09 15:49:00,
2013-04-09 08:54:00,45.0,43.7,30.26,East,90,0.0,0.0,95,0.00,,---,0.00,139.00,VWS V14.01,2013-04-09 15:54:00,
2013-04-09 08:59:00,45.3,43.4,30.25,East,90,0.0,1.0,93,0.00,,---,0.00,183.00,VWS V14.01,2013-04-09 15:59:00,
2013-04-09 09:04:00,45.7,43.5,30.26,East,90,0.0,2.0,92,0.00,,---,0.00,301.00,VWS V14.01,2013-04-09 16:04:00,
2013-04-09 09:09:00,46.1,43.6,30.26,ESE,123,0.0,2.0,91,0.00,,---,0.00,308.00,VWS V14.01,2013-04-09 16:09:00,
2013-04-09 09:14:00,46.7,43.9,30.26,SE,138,0.0,2.0,90,0.00,,---,0.00,387.00,VWS V14.01,2013-04-09 16:14:00,
2013-04-09 09:19:00,47.3,44.2,30.26,SE,137,0.0,2.0,89,0.00,,---,0.00,503.00,VWS V14.01,2013-04-09 16:19:00,
2013-04-09 09:24:00,48.3,44.3,30.26,WSW,239,0.0,3.0,86,0.00,,---,0.00,366.00,VWS V14.01,2013-04-09 16:24:00,
2013-04-09 09:29:00,49.1,45.1,30.26,SW,214,0.0,3.0,86,0.00,,---,0.00,429.00,VWS V14.01,2013-04-09 16:29:00,
2013-04-09 09:34:00,49.9,45.6,30.26,SSW,198,1.0,3.0,85,0.00,,---,0.00,387.00,VWS V14.01,2013-04-09 16:34:00,
2013-04-09 09:40:00,50.7,45.7,30.26,WNW,290,0.0,3.0,83,0.00,,---,0.00,411.00,VWS V14.01,2013-04-09 16:40:00,
2013-04-09 09:45:00,51.3,45.0,30.26,SSW,196,1.0,4.0,79,0.00,,---,0.00,512.00,VWS V14.01,2013-04-09 16:45:00,
2013-04-09 09:50:00,51.2,46.2,30.26,WSW,238,1.0,3.0,83,0.00,,---,0.00,285.00,VWS V14.01,2013-04-09 16:50:00,
2013-04-09 09:55:00,51.2,44.6,30.26,SW,216,1.0,3.0,78,0.00,,---,0.00,186.00,VWS V14.01,2013-04-09 16:55:00,
2013-04-09 10:00:00,50.9,45.3,30.26,WNW,300,1.0,3.0,81,0.00,,---,0.00,165.00,VWS V14.01,2013-04-09 17:00:00,
2013-04-09 10:05:00,50.9,45.3,30.26,WNW,301,0.0,4.0,81,0.00,,---,0.00,163.00,VWS V14.01,2013-04-09 17:05:00,
2013-04-09 10:10:00,50.9,45.3,30.26,NW,309,4.0,4.0,81,0.00,,---,0.00,169.00,VWS V14.01,2013-04-09 17:10:00,
2013-04-09 10:15:00,50.8,44.9,30.26,WNW,289,2.0,6.0,80,0.00,,---,0.00,190.00,VWS V14.01,2013-04-09 17:15:00,
2013-04-09 10:20:00,50.8,45.2,30.27,WNW,284,1.0,5.0,81,0.00,,---,0.00,186.00,VWS V14.01,2013-04-09 17:20:00,
2013-04-09 10:25:00,50.9,45.3,30.27,West,273,0.0,4.0,81,0.00,,---,0.00,206.00,VWS V14.01,2013-04-09 17:25:00,
2013-04-09 10:30:00,50.8,44.2,30.26,SW,224,2.0,4.0,78,0.00,,---,0.00,207.00,VWS V14.01,2013-04-09 17:30:00,
2013-04-09 10:35:00,50.6,44.3,30.27,SSW,192,1.0,4.0,79,0.00,,---,0.00,211.00,VWS V14.01,2013-04-09 17:35:00,
2013-04-09 10:40:00,50.6,44.7,30.27,WNW,282,2.0,3.0,80,0.00,,---,0.00,193.00,VWS V14.01,2013-04-09 17:40:00,
2013-04-09 10:45:00,50.6,44.3,30.27,WNW,295,2.0,3.0,79,0.00,,---,0.00,241.00,VWS V14.01,2013-04-09 17:45:00,
2013-04-09 10:50:00,50.8,44.5,30.28,NW,308,0.0,4.0,79,0.00,,---,0.00,269.00,VWS V14.01,2013-04-09 17:50:00,
2013-04-09 10:55:00,50.9,44.3,30.28,SW,233,2.0,3.0,78,0.00,,---,0.00,285.00,VWS V14.01,2013-04-09 17:55:00,
2013-04-09 11:00:00,51.2,44.9,30.28,WNW,288,2.0,6.0,79,0.00,,---,0.00,278.00,VWS V14.01,2013-04-09 18:00:00,
2013-04-09 11:05:00,51.4,45.5,30.28,WNW,284,3.0,4.0,80,0.00,,---,0.00,267.00,VWS V14.01,2013-04-09 18:05:00,
2013-04-09 11:10:00,51.6,45.6,30.28,WNW,303,2.0,4.0,80,0.00,,---,0.00,255.00,VWS V14.01,2013-04-09 18:10:00,
2013-04-09 11:15:00,51.9,45.3,30.28,WNW,294,0.0,3.0,78,0.00,,---,0.00,204.00,VWS V14.01,2013-04-09 18:15:00,
2013-04-09 11:20:00,52.1,45.8,30.28,WNW,301,1.0,4.0,79,0.00,,---,0.00,179.00,VWS V14.01,2013-04-09 18:20:00,
2013-04-09 11:25:00,52.1,45.5,30.28,West,263,2.0,5.0,78,0.00,,---,0.00,178.00,VWS V14.01,2013-04-09 18:25:00,
2013-04-09 11:30:00,51.8,45.2,30.28,WNW,288,0.0,4.0,78,0.00,,---,0.00,171.00,VWS V14.01,2013-04-09 18:30:00,
2013-04-09 11:35:00,51.7,45.4,30.28,WNW,288,0.0,3.0,79,0.00,,---,0.00,172.00,VWS V14.01,2013-04-09 18:35:00,
2013-04-09 11:40:00,51.7,45.4,30.28,West,266,2.0,4.0,79,0.00,,---,0.00,176.00,VWS V14.01,2013-04-09 18:40:00,
2013-04-09 11:45:00,51.7,45.4,30.28,West,275,1.0,3.0,79,0.00,,---,0.00,174.00,VWS V14.01,2013-04-09 18:45:00,
2013-04-09 11:50:00,51.7,45.4,30.28,WNW,293,2.0,4.0,79,0.00,,---,0.00,174.00,VWS V14.01,2013-04-09 18:50:00,
2013-04-09 11:55:00,51.7,45.4,30.28,WSW,251,1.0,4.0,79,0.00,,---,0.00,197.00,VWS V14.01,2013-04-09 18:55:00,
2013-04-09 12:00:00,51.5,44.5,30.28,WNW,295,2.0,4.0,77,0.00,,---,0.00,243.00,VWS V14.01,2013-04-09 19:00:00,
2013-04-09 12:06:00,51.6,45.6,30.27,NNW,330,1.0,4.0,80,0.00,,---,0.00,327.00,VWS V14.01,2013-04-09 19:06:00,
2013-04-09 12:11:00,52.1,46.5,30.27,SW,229,0.0,3.0,81,0.00,,---,0.00,446.00,VWS V14.01,2013-04-09 19:11:00,
2013-04-09 12:16:00,52.5,45.8,30.27,WNW,288,1.0,3.0,78,0.00,,---,0.00,431.00,VWS V14.01,2013-04-09 19:16:00,
2013-04-09 12:21:00,53.0,45.3,30.27,NE,55,2.0,3.0,75,0.00,,---,0.00,536.00,VWS V14.01,2013-04-09 19:21:00,
2013-04-09 12:26:00,52.9,45.2,30.26,NW,319,1.0,4.0,75,0.00,,---,0.00,369.00,VWS V14.01,2013-04-09 19:26:00,
2013-04-09 12:31:00,53.3,44.9,30.27,SSW,210,1.0,4.0,73,0.00,,---,0.00,320.00,VWS V14.01,2013-04-09 19:31:00,
2013-04-09 12:36:00,53.4,45.0,30.27,WSW,238,0.0,4.0,73,0.00,,---,0.00,378.00,VWS V14.01,2013-04-09 19:36:00,
2013-04-09 12:41:00,53.8,46.8,30.27,WSW,246,6.0,6.0,77,0.00,,---,0.00,248.00,VWS V14.01,2013-04-09 19:41:00,
2013-04-09 12:46:00,53.9,45.5,30.27,NW,319,0.0,6.0,73,0.00,,---,0.00,206.00,VWS V14.01,2013-04-09 19:46:00,
2013-04-09 12:51:00,54.0,45.9,30.27,WNW,300,0.0,5.0,74,0.00,,---,0.00,258.00,VWS V14.01,2013-04-09 19:51:00,
2013-04-09 12:57:00,54.1,46.4,30.27,West,263,0.0,6.0,75,0.00,,---,0.00,278.00,VWS V14.01,2013-04-09 19:57:00,
2013-04-09 13:02:00,53.9,45.1,30.27,SSW,209,0.0,6.0,72,0.00,,---,0.00,230.00,VWS V14.01,2013-04-09 20:02:00,
2013-04-09 13:07:00,53.9,45.8,30.27,WNW,302,3.0,3.0,74,0.00,,---,0.00,199.00,VWS V14.01,2013-04-09 20:07:00,
2013-04-09 13:12:00,53.9,44.3,30.26,SSW,213,2.0,5.0,70,0.00,,---,0.00,199.00,VWS V14.01,2013-04-09 20:12:00,
2013-04-09 13:17:00,53.8,45.4,30.26,West,274,0.0,3.0,73,0.00,,---,0.00,221.00,VWS V14.01,2013-04-09 20:17:00,
2013-04-09 13:22:00,53.7,44.5,30.26,WSW,254,0.0,5.0,71,0.00,,---,0.00,211.00,VWS V14.01,2013-04-09 20:22:00,
2013-04-09 13:27:00,53.7,44.5,30.26,SSE,164,1.0,5.0,71,0.00,,---,0.00,176.00,VWS V14.01,2013-04-09 20:27:00,
2013-04-09 13:32:00,53.6,43.7,30.26,WSW,240,0.0,2.0,69,0.00,,---,0.00,172.00,VWS V14.01,2013-04-09 20:32:00,
2013-04-09 13:37:00,53.4,44.2,30.26,WSW,254,0.0,5.0,71,0.00,,---,0.00,181.00,VWS V14.01,2013-04-09 20:37:00,
2013-04-09 13:42:00,53.3,44.2,30.26,South,190,1.0,5.0,71,0.00,,---,0.00,183.00,VWS V14.01,2013-04-09 20:42:00,
2013-04-09 13:47:00,53.3,44.9,30.26,WNW,294,2.0,4.0,73,0.00,,---,0.00,197.00,VWS V14.01,2013-04-09 20:47:00,
2013-04-09 13:52:00,53.2,44.4,30.26,WNW,285,1.0,4.0,72,0.00,,---,0.00,211.00,VWS V14.01,2013-04-09 20:52:00,
2013-04-09 13:57:00,53.3,43.4,30.25,West,272,1.0,2.0,69,0.00,,---,0.00,229.00,VWS V14.01,2013-04-09 20:57:00,
2013-04-09 14:02:00,53.1,42.8,30.25,SW,219,0.0,2.0,68,0.00,,---,0.00,234.00,VWS V14.01,2013-04-09 21:02:00,
2013-04-09 14:07:00,53.0,42.7,30.26,SSW,206,2.0,5.0,68,0.00,,---,0.00,206.00,VWS V14.01,2013-04-09 21:07:00,
2013-04-09 14:12:00,52.8,42.2,30.25,West,262,5.0,5.0,67,0.00,,---,0.00,192.00,VWS V14.01,2013-04-09 21:12:00,
2013-04-09 14:17:00,52.7,42.8,30.25,SW,216,0.0,5.0,69,0.00,,---,0.00,207.00,VWS V14.01,2013-04-09 21:17:00,
2013-04-09 14:22:00,52.9,43.8,30.25,SW,223,0.0,6.0,71,0.00,,---,0.00,190.00,VWS V14.01,2013-04-09 21:22:00,
2013-04-09 14:27:00,53.1,43.6,30.25,WSW,250,0.0,6.0,70,0.00,,---,0.00,139.00,VWS V14.01,2013-04-09 21:27:00,
2013-04-09 14:32:00,53.2,43.3,30.26,West,270,1.0,5.0,69,0.00,,---,0.00,121.00,VWS V14.01,2013-04-09 21:32:00,
2013-04-09 14:37:00,53.1,43.6,30.25,West,270,0.0,5.0,70,0.00,,---,0.00,120.00,VWS V14.01,2013-04-09 21:37:00,
2013-04-09 14:42:00,53.0,43.1,30.25,West,270,0.0,1.0,69,0.00,,---,0.00,121.00,VWS V14.01,2013-04-09 21:42:00,
2013-04-09 14:47:00,52.8,42.2,30.25,West,270,0.0,2.0,67,0.00,,---,0.00,120.00,VWS V14.01,2013-04-09 21:47:00,
2013-04-09 14:52:00,52.7,43.6,30.24,West,270,0.0,2.0,71,0.00,,---,0.00,134.00,VWS V14.01,2013-04-09 21:52:00,
2013-04-09 14:57:00,52.7,43.6,30.24,NE,56,1.0,2.0,71,0.00,,---,0.00,121.00,VWS V14.01,2013-04-09 21:57:00,
2013-04-09 15:03:00,52.5,42.6,30.24,NE,56,1.0,2.0,69,0.00,,---,0.00,95.00,VWS V14.01,2013-04-09 22:03:00,
2013-04-09 15:08:00,52.5,42.3,30.24,NE,56,0.0,2.0,68,0.00,,---,0.00,114.00,VWS V14.01,2013-04-09 22:08:00,
2013-04-09 15:13:00,52.5,43.0,30.24,NE,56,0.0,2.0,70,0.00,,---,0.00,134.00,VWS V14.01,2013-04-09 22:13:00,
2013-04-09 15:18:00,52.6,44.2,30.24,NE,56,0.0,0.0,73,0.00,,---,0.00,144.00,VWS V14.01,2013-04-09 22:18:00,
2013-04-09 15:23:00,52.8,44.4,30.23,NE,56,1.0,2.0,73,0.00,,---,0.00,206.00,VWS V14.01,2013-04-09 22:23:00,
2013-04-09 15:28:00,53.0,42.3,30.23,ENE,57,0.0,2.0,67,0.00,,---,0.00,246.00,VWS V14.01,2013-04-09 22:28:00,
2013-04-09 15:33:00,53.3,43.4,30.23,East,81,0.0,2.0,69,0.00,,---,0.00,225.00,VWS V14.01,2013-04-09 22:33:00,
2013-04-09 15:38:00,53.5,44.0,30.23,ENE,59,0.0,2.0,70,0.00,,---,0.00,144.00,VWS V14.01,2013-04-09 22:38:00,
2013-04-09 15:43:00,53.8,43.1,30.23,ENE,59,0.0,2.0,67,0.00,,---,0.00,127.00,VWS V14.01,2013-04-09 22:43:00,
2013-04-09 15:48:00,54.0,44.1,30.23,ESE,119,0.0,2.0,69,0.00,,---,0.00,127.00,VWS V14.01,2013-04-09 22:48:00,
2013-04-09 15:53:00,54.0,42.5,30.23,SE,135,0.0,2.0,65,0.00,,---,0.00,120.00,VWS V14.01,2013-04-09 22:53:00,
2013-04-09 15:58:00,53.9,42.4,30.22,SSW,192,0.0,2.0,65,0.00,,---,0.00,111.00,VWS V14.01,2013-04-09 22:58:00,
2013-04-09 16:03:00,53.8,44.3,30.22,ESE,116,0.0,2.0,70,0.00,,---,0.00,104.00,VWS V14.01,2013-04-09 23:03:00,
2013-04-09 16:08:00,53.8,43.9,30.22,ESE,116,0.0,0.0,69,0.00,,---,0.00,116.00,VWS V14.01,2013-04-09 23:08:00,
2013-04-09 16:13:00,53.9,44.7,30.22,SE,143,2.0,2.0,71,0.00,,---,0.00,111.00,VWS V14.01,2013-04-09 23:13:00,
2013-04-09 16:18:00,53.9,42.4,30.22,SSW,194,1.0,3.0,65,0.00,,---,0.00,109.00,VWS V14.01,2013-04-09 23:18:00,
2013-04-09 16:23:00,53.7,42.6,30.22,SSW,207,0.0,4.0,66,0.00,,---,0.00,109.00,VWS V14.01,2013-04-09 23:23:00,
2013-04-09 16:28:00,53.7,42.6,30.22,South,185,0.0,4.0,66,0.00,,---,0.00,121.00,VWS V14.01,2013-04-09 23:28:00,
2013-04-09 16:33:00,53.7,42.6,30.22,SSW,194,3.0,3.0,66,0.00,,---,0.00,142.00,VWS V14.01,2013-04-09 23:33:00,
2013-04-09 16:38:00,53.7,43.8,30.22,West,276,0.0,5.0,69,0.00,,---,0.00,127.00,VWS V14.01,2013-04-09 23:38:00,
2013-04-09 16:43:00,53.6,42.9,30.22,South,191,1.0,5.0,67,0.00,,---,0.00,118.00,VWS V14.01,2013-04-09 23:43:00,
2013-04-09 16:48:00,53.6,43.7,30.22,West,277,1.0,5.0,69,0.00,,---,0.00,121.00,VWS V14.01,2013-04-09 23:48:00,
2013-04-09 16:53:00,53.6,44.1,30.23,NW,312,4.0,4.0,70,0.00,,---,0.00,98.00,VWS V14.01,2013-04-09 23:53:00,
2013-04-09 16:58:00,53.4,43.9,30.22,WNW,286,3.0,5.0,70,0.00,,---,0.00,105.00,VWS V14.01,2013-04-09 23:58:00,
2013-04-09 17:03:00,53.2,43.3,30.22,SW,223,0.0,3.0,69,0.00,,---,0.00,60.00,VWS V14.01,2013-04-10 00:03:00,
2013-04-09 17:08:00,53.1,43.6,30.22,West,263,2.0,3.0,70,0.00,,---,0.00,44.00,VWS V14.01,2013-04-10 00:08:00,
2013-04-09 17:13:00,53.0,43.9,30.22,West,263,0.0,3.0,71,0.00,,---,0.00,62.00,VWS V14.01,2013-04-10 00:13:00,
2013-04-09 17:18:00,52.9,44.1,30.22,West,265,1.0,3.0,72,0.00,,---,0.00,51.00,VWS V14.01,2013-04-10 00:18:00,
2013-04-09 17:23:00,52.8,43.7,30.22,WNW,288,0.0,3.0,71,0.00,,---,0.00,44.00,VWS V14.01,2013-04-10 00:23:00,
2013-04-09 17:28:00,52.6,44.6,30.22,WNW,287,0.0,3.0,74,0.00,,---,0.00,37.00,VWS V14.01,2013-04-10 00:28:00,
2013-04-09 17:33:00,52.4,44.0,30.22,WNW,284,0.0,2.0,73,0.00,,---,0.00,49.00,VWS V14.01,2013-04-10 00:33:00,
2013-04-09 17:38:00,52.3,44.3,30.22,WNW,284,0.0,2.0,74,0.00,,---,0.00,51.00,VWS V14.01,2013-04-10 00:38:00,
2013-04-09 17:43:00,52.1,43.7,30.22,WNW,284,0.0,0.0,73,0.00,,---,0.00,40.00,VWS V14.01,2013-04-10 00:43:00,
2013-04-09 17:48:00,52.0,43.6,30.22,WNW,284,0.0,0.0,73,0.00,,---,0.00,35.00,VWS V14.01,2013-04-10 00:48:00,
2013-04-09 17:53:00,51.9,43.2,30.21,WNW,284,0.0,0.0,72,0.00,,---,0.00,37.00,VWS V14.01,2013-04-10 00:53:00,
2013-04-09 17:58:00,51.7,43.7,30.21,WNW,284,0.0,0.0,74,0.00,,---,0.00,33.00,VWS V14.01,2013-04-10 00:58:00,
2013-04-09 18:03:00,51.6,43.6,30.21,WNW,284,0.0,0.0,74,0.00,,---,0.00,25.00,VWS V14.01,2013-04-10 01:03:00,
2013-04-09 18:08:00,51.5,43.8,30.21,WNW,284,0.0,0.0,75,0.00,,---,0.00,33.00,VWS V14.01,2013-04-10 01:08:00,
2013-04-09 18:13:00,51.5,44.9,30.21,WNW,284,0.0,0.0,78,0.00,,---,0.00,39.00,VWS V14.01,2013-04-10 01:13:00,
2013-04-09 18:18:00,51.4,44.4,30.20,WNW,284,0.0,0.0,77,0.00,,---,0.00,33.00,VWS V14.01,2013-04-10 01:18:00,
2013-04-09 18:23:00,51.4,45.1,30.20,WNW,284,0.0,0.0,79,0.00,,---,0.00,23.00,VWS V14.01,2013-04-10 01:23:00,
2013-04-09 18:28:00,51.4,45.1,30.20,WNW,284,0.0,0.0,79,0.00,,---,0.00,16.00,VWS V14.01,2013-04-10 01:28:00,
2013-04-09 18:33:00,51.3,44.7,30.20,WNW,284,0.0,0.0,78,0.00,,---,0.00,16.00,VWS V14.01,2013-04-10 01:33:00,
2013-04-09 18:38:00,51.1,44.5,30.19,WNW,284,0.0,2.0,78,0.00,,---,0.00,18.00,VWS V14.01,2013-04-10 01:38:00,
2013-04-09 18:44:00,50.9,44.3,30.19,WNW,284,0.0,2.0,78,0.00,,---,0.00,11.00,VWS V14.01,2013-04-10 01:44:00,
2013-04-09 18:48:00,50.8,44.5,30.20,WNW,284,0.0,2.0,79,0.00,,---,0.00,9.00,VWS V14.01,2013-04-10 01:48:00,
2013-04-09 18:53:00,50.7,44.4,30.19,WNW,284,0.0,1.0,79,0.00,,---,0.00,9.00,VWS V14.01,2013-04-10 01:53:00,
2013-04-09 18:59:00,50.6,44.7,30.19,WNW,284,0.0,0.0,80,0.00,,---,0.00,7.00,VWS V14.01,2013-04-10 01:59:00,
2013-04-09 19:04:00,50.4,44.1,30.19,WNW,284,0.0,0.0,79,0.00,,---,0.00,7.00,VWS V14.01,2013-04-10 02:04:00,
2013-04-09 19:09:00,50.3,44.7,30.18,WNW,284,0.0,0.0,81,0.00,,---,0.00,5.00,VWS V14.01,2013-04-10 02:09:00,
2013-04-09 19:14:00,50.2,44.6,30.18,WNW,284,0.0,0.0,81,0.00,,---,0.00,0.00,VWS V14.01,2013-04-10 02:14:00,
2013-04-09 19:19:00,50.1,44.2,30.18,WNW,284,0.0,0.0,80,0.00,,---,0.00,0.00,VWS V14.01,2013-04-10 02:19:00,
2013-04-09 19:24:00,49.9,44.6,30.18,WNW,284,0.0,0.0,82,0.00,,---,0.00,0.00,VWS V14.01,2013-04-10 02:24:00,
2013-04-09 19:29:00,49.8,44.5,30.18,WNW,284,0.0,0.0,82,0.00,,---,0.00,0.00,VWS V14.01,2013-04-10 02:29:00,
2013-04-09 19:34:00,49.7,44.4,30.17,WNW,284,0.0,0.0,82,0.00,,---,0.00,0.00,VWS V14.01,2013-04-10 02:34:00,
2013-04-09 19:39:00,49.7,44.8,30.18,WNW,284,0.0,0.0,83,0.00,,---,0.00,0.00,VWS V14.01,2013-04-10 02:39:00,
2013-04-09 19:44:00,49.6,44.7,30.17,WNW,284,0.0,0.0,83,0.00,,---,0.00,0.00,VWS V14.01,2013-04-10 02:44:00,
2013-04-09 19:49:00,49.5,44.6,30.17,WNW,284,0.0,0.0,83,0.00,,---,0.00,0.00,VWS V14.01,2013-04-10 02:49:00,
2013-04-09 19:54:00,49.4,44.8,30.17,WNW,284,0.0,0.0,84,0.00,,---,0.00,0.00,VWS V14.01,2013-04-10 02:54:00,
2013-04-09 19:59:00,49.4,44.8,30.18,WNW,284,0.0,0.0,84,0.00,,---,0.00,0.00,VWS V14.01,2013-04-10 02:59:00,
2013-04-09 20:04:00,49.3,45.0,30.17,WNW,284,0.0,0.0,85,0.00,,---,0.00,0.00,VWS V14.01,2013-04-10 03:04:00,
2013-04-09 20:09:00,49.2,44.9,30.18,WNW,284,0.0,0.0,85,0.00,,---,0.00,0.00,VWS V14.01,2013-04-10 03:09:00,
2013-04-09 20:14:00,49.1,44.8,30.18,WNW,284,0.0,0.0,85,0.00,,---,0.00,0.00,VWS V14.01,2013-04-10 03:14:00,
2013-04-09 20:19:00,49.1,44.8,30.18,WNW,284,0.0,0.0,85,0.00,,---,0.00,0.00,VWS V14.01,2013-04-10 03:19:00,
2013-04-09 20:24:00,49.0,45.0,30.17,WNW,284,0.0,0.0,86,0.00,,---,0.00,0.00,VWS V14.01,2013-04-10 03:24:00,
2013-04-09 20:29:00,48.9,44.6,30.17,WNW,284,0.0,0.0,85,0.00,,---,0.00,0.00,VWS V14.01,2013-04-10 03:29:00,
2013-04-09 20:34:00,48.8,44.5,30.17,WNW,284,0.0,0.0,85,0.00,,---,0.00,0.00,VWS V14.01,2013-04-10 03:34:00,
2013-04-09 20:39:00,48.8,44.2,30.17,WNW,284,0.0,0.0,84,0.00,,---,0.00,0.00,VWS V14.01,2013-04-10 03:39:00,
2013-04-09 20:44:00,48.8,44.5,30.17,WNW,284,0.0,0.0,85,0.00,,---,0.00,0.00,VWS V14.01,2013-04-10 03:44:00,
2013-04-09 20:49:00,48.8,44.8,30.17,WNW,284,0.0,0.0,86,0.00,,---,0.00,0.00,VWS V14.01,2013-04-10 03:49:00,
2013-04-09 20:54:00,48.8,44.8,30.17,WNW,284,0.0,0.0,86,0.00,,---,0.00,0.00,VWS V14.01,2013-04-10 03:54:00,
2013-04-09 20:59:00,48.8,44.8,30.17,WNW,284,0.0,0.0,86,0.00,,---,0.00,0.00,VWS V14.01,2013-04-10 03:59:00,
2013-04-09 21:00:00,48.8,44.8,30.18,WNW,284,0.0,0.0,86,0.00,,---,0.00,0.00,VWS V14.01,2013-04-10 04:00:00,
2013-04-09 21:05:00,48.7,44.4,30.17,WNW,284,0.0,0.0,85,0.00,,---,0.00,0.00,VWS V14.01,2013-04-10 04:05:00,
2013-04-09 21:10:00,48.7,44.4,30.16,WNW,284,0.0,0.0,85,0.00,,---,0.00,0.00,VWS V14.01,2013-04-10 04:10:00,
2013-04-09 21:15:00,48.7,44.1,30.16,WNW,284,0.0,0.0,84,0.00,,---,0.00,0.00,VWS V14.01,2013-04-10 04:15:00,
2013-04-09 21:20:00,48.7,44.4,30.16,WNW,284,0.0,0.0,85,0.00,,---,0.00,0.00,VWS V14.01,2013-04-10 04:20:00,
2013-04-09 21:25:00,48.7,44.4,30.16,WNW,284,0.0,0.0,85,0.00,,---,0.00,0.00,VWS V14.01,2013-04-10 04:25:00,
2013-04-09 21:30:00,48.7,44.4,30.16,WNW,284,0.0,0.0,85,0.00,,---,0.00,0.00,VWS V14.01,2013-04-10 04:30:00,
2013-04-09 21:35:00,48.7,44.7,30.16,WNW,284,0.0,0.0,86,0.00,,---,0.00,0.00,VWS V14.01,2013-04-10 04:35:00,
2013-04-09 21:40:00,48.7,44.7,30.17,WNW,284,0.0,0.0,86,0.00,,---,0.00,0.00,VWS V14.01,2013-04-10 04:40:00,
2013-04-09 21:45:00,48.7,44.7,30.16,WNW,284,0.0,0.0,86,0.00,,---,0.00,0.00,VWS V14.01,2013-04-10 04:45:00,
2013-04-09 21:50:00,48.6,44.6,30.16,WNW,284,0.0,0.0,86,0.00,,---,0.00,0.00,VWS V14.01,2013-04-10 04:50:00,
2013-04-09 21:55:00,48.6,44.6,30.16,WNW,284,0.0,0.0,86,0.00,,---,0.00,0.00,VWS V14.01,2013-04-10 04:55:00,
2013-04-09 22:00:00,48.6,44.6,30.16,WNW,284,0.0,0.0,86,0.00,,---,0.00,0.00,VWS V14.01,2013-04-10 05:00:00,
2013-04-09 22:05:00,48.6,44.6,30.16,WNW,284,0.0,0.0,86,0.00,,---,0.00,0.00,VWS V14.01,2013-04-10 05:05:00,
2013-04-09 22:10:00,48.6,44.6,30.16,WNW,284,0.0,0.0,86,0.00,,---,0.00,0.00,VWS V14.01,2013-04-10 05:10:00,
2013-04-09 22:15:00,48.6,44.9,30.16,WNW,284,0.0,0.0,87,0.00,,---,0.00,0.00,VWS V14.01,2013-04-10 05:15:00,
2013-04-09 22:21:00,48.6,44.6,30.16,WNW,292,0.0,1.0,86,0.00,,---,0.00,0.00,VWS V14.01,2013-04-10 05:21:00,
2013-04-09 22:26:00,48.6,44.6,30.15,WNW,292,0.0,1.0,86,0.00,,---,0.00,0.00,VWS V14.01,2013-04-10 05:26:00,
2013-04-09 22:31:00,48.6,44.6,30.15,WNW,292,0.0,0.0,86,0.00,,---,0.00,0.00,VWS V14.01,2013-04-10 05:31:00,
2013-04-09 22:36:00,48.6,44.6,30.15,WNW,292,0.0,0.0,86,0.00,,---,0.00,0.00,VWS V14.01,2013-04-10 05:36:00,
2013-04-09 22:41:00,48.7,44.7,30.14,NNW,335,0.0,2.0,86,0.00,,---,0.00,0.00,VWS V14.01,2013-04-10 05:41:00,
2013-04-09 22:46:00,48.8,44.8,30.14,NNW,335,0.0,2.0,86,0.00,,---,0.00,0.00,VWS V14.01,2013-04-10 05:46:00,
2013-04-09 22:51:00,48.9,44.9,30.14,NNW,335,0.0,1.0,86,0.00,,---,0.00,0.00,VWS V14.01,2013-04-10 05:51:00,
2013-04-09 22:56:00,48.9,44.9,30.14,NNW,335,0.0,1.0,86,0.00,,---,0.00,0.00,VWS V14.01,2013-04-10 05:56:00,
2013-04-09 23:01:00,48.8,44.8,30.14,NNW,335,0.0,1.0,86,0.00,,---,0.00,0.00,VWS V14.01,2013-04-10 06:01:00,
2013-04-09 23:06:00,48.8,44.8,30.14,NNW,335,0.0,0.0,86,0.00,,---,0.00,0.00,VWS V14.01,2013-04-10 06:06:00,
2013-04-09 23:12:00,48.7,44.7,30.14,NNW,335,0.0,0.0,86,0.00,,---,0.00,0.00,VWS V14.01,2013-04-10 06:12:00,
2013-04-09 23:17:00,48.7,44.7,30.14,NNW,335,0.0,0.0,86,0.00,,---,0.00,0.00,VWS V14.01,2013-04-10 06:17:00,
2013-04-09 23:22:00,48.6,44.6,30.14,NNW,335,0.0,0.0,86,0.00,,---,0.00,0.00,VWS V14.01,2013-04-10 06:22:00,
2013-04-09 23:27:00,48.6,44.6,30.14,NNW,335,0.0,0.0,86,0.00,,---,0.00,0.00,VWS V14.01,2013-04-10 06:27:00,
2013-04-09 23:32:00,48.6,44.6,30.14,NNW,335,0.0,0.0,86,0.00,,---,0.00,0.00,VWS V14.01,2013-04-10 06:32:00,
2013-04-09 23:37:00,48.6,44.6,30.13,NNW,335,0.0,0.0,86,0.00,,---,0.00,0.00,VWS V14.01,2013-04-10 06:37:00,
2013-04-09 23:42:00,48.6,44.3,30.13,NNW,335,0.0,0.0,85,0.00,,---,0.00,0.00,VWS V14.01,2013-04-10 06:42:00,
2013-04-09 23:47:00,48.5,44.5,30.12,NNW,335,0.0,0.0,86,0.00,,---,0.00,0.00,VWS V14.01,2013-04-10 06:47:00,
2013-04-09 23:52:00,48.5,44.5,30.12,NNW,335,0.0,0.0,86,0.00,,---,0.00,0.00,VWS V14.01,2013-04-10 06:52:00,
2013-04-09 23:57:00,48.5,44.5,30.12,NNW,335,0.0,0.0,86,0.00,,---,0.00,0.00,VWS V14.01,2013-04-10 06:57:00,